Time;durP1;ratioP1;P1;durP2;ratioP2;P2;SDS_P1;SDS_P2;PMS_P1;PMS_P2;Temp;Humidity;BMP_temperature;BMP_pressure;BME280_temperature;BME280_humidity;BME280_pressure;Samples;Min_cycle;Max_cycle;Signal;HPM_P1;HPM_P2
2023/04/12 00:02:14;;;;;;;7.28;6.82;;;;;;;;;;5083015;28;20482;-94
2023/04/12 00:04:41;;;;;;;5.97;5.57;;;;;;;;;;5086383;28;20402;-95
2023/04/12 00:07:08;;;;;;;7.22;6.72;;;;;;;;;;5082311;28;20067;-95
2023/04/12 00:09:38;;;;;;;6.25;5.93;;;;;;;;;;5082595;28;20087;-95
2023/04/12 00:12:05;;;;;;;8.35;8.02;;;;;;;;;;5084883;28;20066;-96
2023/04/12 00:14:33;;;;;;;6.20;5.90;;;;;;;;;;5089821;28;20059;-96
2023/04/12 00:17:00;;;;;;;7.60;7.18;;;;;;;;;;5089941;28;20148;-95
2023/04/12 00:19:29;;;;;;;7.75;7.40;;;;;;;;;;5088499;28;20048;-96
2023/04/12 00:21:56;;;;;;;6.10;5.82;;;;;;;;;;5087905;28;20102;-95
2023/04/12 00:24:23;;;;;;;6.65;6.28;;;;;;;;;;5089659;28;20059;-95
2023/04/12 00:26:51;;;;;;;7.00;5.70;;;;;;;;;;5090261;28;20456;-95
2023/04/12 00:29:18;;;;;;;9.23;8.75;;;;;;;;;;5088371;28;20056;-95
2023/04/12 00:31:45;;;;;;;7.43;6.93;;;;;;;;;;5088176;28;20044;-95
2023/04/12 00:34:12;;;;;;;8.20;7.70;;;;;;;;;;5088859;28;20048;-95
2023/04/12 00:36:39;;;;;;;6.85;6.53;;;;;;;;;;5088167;28;20045;-95
2023/04/12 00:39:05;;;;;;;7.63;7.20;;;;;;;;;;5090773;28;20066;-94
2023/04/12 00:41:32;;;;;;;6.47;6.15;;;;;;;;;;5089425;28;20048;-95
2023/04/12 00:44:01;;;;;;;8.25;7.80;;;;;;;;;;5086807;28;20051;-96
2023/04/12 00:46:28;;;;;;;7.18;6.78;;;;;;;;;;5089418;28;20055;-95
2023/04/12 00:48:55;;;;;;;7.43;7.03;;;;;;;;;;5088407;28;20044;-95
2023/04/12 00:51:24;;;;;;;6.05;5.72;;;;;;;;;;5091324;28;20052;-94
2023/04/12 00:53:51;;;;;;;7.35;6.72;;;;;;;;;;5087677;28;20048;-96
2023/04/12 00:56:18;;;;;;;6.97;6.65;;;;;;;;;;5079283;28;20059;-96
2023/04/12 00:58:45;;;;;;;7.30;6.97;;;;;;;;;;5080523;28;20052;-94
2023/04/12 01:01:15;;;;;;;7.82;7.43;;;;;;;;;;5077766;28;20087;-95
2023/04/12 01:03:42;;;;;;;9.27;8.68;;;;;;;;;;5079154;28;20071;-95
2023/04/12 01:06:14;;;;;;;6.90;6.47;;;;;;;;;;5087756;28;20051;-95
2023/04/12 01:08:46;;;;;;;9.90;9.38;;;;;;;;;;5083495;28;20064;-95
2023/04/12 01:11:16;;;;;;;6.32;6.00;;;;;;;;;;5089298;28;20072;-95
2023/04/12 01:13:46;;;;;;;6.35;5.95;;;;;;;;;;5087997;28;20041;-95
2023/04/12 01:16:19;;;;;;;8.23;7.80;;;;;;;;;;5088349;28;20055;-96
2023/04/12 01:18:50;;;;;;;8.35;7.88;;;;;;;;;;5086718;28;20044;-96
2023/04/12 01:21:18;;;;;;;6.75;6.32;;;;;;;;;;5084308;28;20048;-94
2023/04/12 01:23:52;;;;;;;7.28;6.97;;;;;;;;;;5084943;28;20040;-96
2023/04/12 01:26:31;;;;;;;6.55;6.25;;;;;;;;;;5090431;28;20049;-95
2023/04/12 01:29:01;;;;;;;8.07;7.68;;;;;;;;;;5082907;28;20104;-95
2023/04/12 01:31:29;;;;;;;5.75;5.35;;;;;;;;;;5084771;28;20444;-95
2023/04/12 01:33:57;;;;;;;9.02;8.52;;;;;;;;;;5079571;28;20060;-95
2023/04/12 01:36:26;;;;;;;7.93;7.47;;;;;;;;;;5087048;28;20049;-95
2023/04/12 01:38:53;;;;;;;9.60;9.00;;;;;;;;;;5078553;28;20048;-95
2023/04/12 01:41:20;;;;;;;7.13;6.55;;;;;;;;;;5081428;28;20055;-95
2023/04/12 01:43:48;;;;;;;6.65;6.15;;;;;;;;;;5085630;28;20050;-94
2023/04/12 01:46:18;;;;;;;8.32;7.93;;;;;;;;;;5089453;28;20055;-94
2023/04/12 01:48:49;;;;;;;5.25;4.95;;;;;;;;;;5089550;28;20044;-94
2023/04/12 01:51:19;;;;;;;6.35;6.00;;;;;;;;;;5089192;28;20135;-95
2023/04/12 01:53:48;;;;;;;6.50;6.15;;;;;;;;;;5090662;28;20062;-95
2023/04/12 01:56:16;;;;;;;7.70;7.13;;;;;;;;;;5092157;28;20067;-95
2023/04/12 01:58:44;;;;;;;6.28;5.78;;;;;;;;;;5093592;28;20473;-95
2023/04/12 02:01:12;;;;;;;8.63;8.23;;;;;;;;;;5092539;28;20078;-95
2023/04/12 02:03:41;;;;;;;8.48;8.07;;;;;;;;;;5091859;28;20102;-95
2023/04/12 02:06:08;;;;;;;7.57;7.20;;;;;;;;;;5092186;28;20078;-95
2023/04/12 02:08:35;;;;;;;5.95;5.63;;;;;;;;;;5092853;28;20060;-95
2023/04/12 02:11:07;;;;;;;5.20;4.97;;;;;;;;;;5093034;28;20115;-95
2023/04/12 02:13:34;;;;;;;6.40;5.90;;;;;;;;;;5091787;28;20053;-95
2023/04/12 02:16:01;;;;;;;7.95;7.47;;;;;;;;;;5089233;28;20053;-96
2023/04/12 02:18:29;;;;;;;8.07;7.68;;;;;;;;;;5089004;28;20041;-96
2023/04/12 02:20:57;;;;;;;7.10;6.78;;;;;;;;;;5092067;28;20108;-95
2023/04/12 02:23:24;;;;;;;8.55;7.93;;;;;;;;;;5092513;28;20048;-96
2023/04/12 02:25:51;;;;;;;9.52;8.93;;;;;;;;;;5092312;28;20045;-96
2023/04/12 02:28:18;;;;;;;9.50;9.00;;;;;;;;;;5090832;28;20044;-95
2023/04/12 02:30:45;;;;;;;7.10;6.65;;;;;;;;;;5096122;28;20064;-96
2023/04/12 02:33:20;;;;;;;6.63;6.22;;;;;;;;;;5096614;28;20111;-95
2023/04/12 02:35:47;;;;;;;9.68;9.02;;;;;;;;;;5093809;28;20059;-95
2023/04/12 02:38:15;;;;;;;5.75;5.45;;;;;;;;;;5087492;28;20048;-95
2023/04/12 02:40:45;;;;;;;7.10;5.70;;;;;;;;;;5091791;28;20051;-96
2023/04/12 02:43:12;;;;;;;6.97;6.65;;;;;;;;;;5095569;28;20068;-95
2023/04/12 02:45:39;;;;;;;6.13;5.72;;;;;;;;;;5089831;28;20075;-96
2023/04/12 02:48:05;;;;;;;5.85;5.57;;;;;;;;;;5081824;28;20111;-96
2023/04/12 02:50:32;;;;;;;6.80;6.20;;;;;;;;;;5081979;28;20049;-96
2023/04/12 02:52:59;;;;;;;7.25;6.88;;;;;;;;;;5087366;28;20059;-95
2023/04/12 02:55:29;;;;;;;7.47;7.10;;;;;;;;;;5086187;28;20053;-96
2023/04/12 02:57:56;;;;;;;6.57;6.15;;;;;;;;;;5086441;28;20123;-95
2023/04/12 03:00:22;;;;;;;4.13;3.90;;;;;;;;;;5086564;28;20041;-96
2023/04/12 03:02:50;;;;;;;5.47;5.15;;;;;;;;;;5090287;28;20044;-95
2023/04/12 03:05:17;;;;;;;7.72;7.32;;;;;;;;;;5091836;28;20056;-95
2023/04/12 03:07:44;;;;;;;7.53;7.10;;;;;;;;;;5093988;28;20040;-96
2023/04/12 03:10:12;;;;;;;7.15;6.65;;;;;;;;;;5092889;28;20056;-96
2023/04/12 03:12:42;;;;;;;6.70;6.30;;;;;;;;;;5094017;28;20052;-96
2023/04/12 03:15:09;;;;;;;7.30;5.93;;;;;;;;;;5093792;28;20052;-96
2023/04/12 03:17:36;;;;;;;7.05;6.57;;;;;;;;;;5092086;28;20048;-96
2023/04/12 03:20:05;;;;;;;6.15;5.82;;;;;;;;;;5090394;28;20048;-95
2023/04/12 03:22:32;;;;;;;5.75;5.45;;;;;;;;;;5094489;28;20497;-95
2023/04/12 03:24:58;;;;;;;7.38;7.07;;;;;;;;;;5087289;28;20117;-94
2023/04/12 03:27:25;;;;;;;6.28;5.97;;;;;;;;;;5080227;28;20056;-94
2023/04/12 03:29:53;;;;;;;8.38;7.88;;;;;;;;;;5079586;28;20044;-95
2023/04/12 03:32:20;;;;;;;9.48;9.00;;;;;;;;;;5084216;28;20493;-94
2023/04/12 03:34:47;;;;;;;8.10;7.70;;;;;;;;;;5080058;28;20048;-95
2023/04/12 03:37:13;;;;;;;9.05;8.52;;;;;;;;;;5079235;28;20045;-94
2023/04/12 03:39:40;;;;;;;7.13;6.82;;;;;;;;;;5079132;28;20160;-94
2023/04/12 03:42:07;;;;;;;7.00;6.55;;;;;;;;;;5078223;28;20055;-94
2023/04/12 03:44:33;;;;;;;7.28;6.30;;;;;;;;;;5077474;28;20041;-94
2023/04/12 03:47:02;;;;;;;8.50;8.00;;;;;;;;;;5079353;28;20055;-94
2023/04/12 03:49:28;;;;;;;9.18;8.75;;;;;;;;;;5077779;28;20057;-94
2023/04/12 03:51:56;;;;;;;7.43;6.85;;;;;;;;;;5078337;28;20075;-94
2023/04/12 03:54:23;;;;;;;7.88;7.50;;;;;;;;;;5083456;28;20052;-95
2023/04/12 03:56:49;;;;;;;7.47;6.97;;;;;;;;;;5084517;28;20135;-94
2023/04/12 03:59:16;;;;;;;9.07;8.57;;;;;;;;;;5086501;28;20041;-94
2023/04/12 04:01:43;;;;;;;8.80;8.38;;;;;;;;;;5085125;28;20493;-95
2023/04/12 04:04:11;;;;;;;7.68;7.10;;;;;;;;;;5086886;28;20086;-95
2023/04/12 04:06:38;;;;;;;9.55;9.02;;;;;;;;;;5087025;28;20048;-94
2023/04/12 04:09:05;;;;;;;8.68;7.90;;;;;;;;;;5087545;28;20070;-94
2023/04/12 04:11:32;;;;;;;8.68;8.13;;;;;;;;;;5086096;28;20091;-95
2023/04/12 04:13:59;;;;;;;7.18;6.75;;;;;;;;;;5087608;28;20052;-95
2023/04/12 04:16:27;;;;;;;7.78;7.28;;;;;;;;;;5090273;28;20044;-93
2023/04/12 04:18:56;;;;;;;7.35;6.82;;;;;;;;;;5087621;28;20078;-93
2023/04/12 04:21:25;;;;;;;8.52;8.00;;;;;;;;;;5087787;28;20075;-94
2023/04/12 04:23:52;;;;;;;8.35;7.78;;;;;;;;;;5085936;28;20091;-94
2023/04/12 04:26:19;;;;;;;6.63;6.03;;;;;;;;;;5081790;28;20044;-94
2023/04/12 04:28:46;;;;;;;10.52;9.82;;;;;;;;;;5083430;28;20048;-93
2023/04/12 04:31:16;;;;;;;9.13;8.57;;;;;;;;;;5083274;28;20048;-94
2023/04/12 04:33:43;;;;;;;11.45;10.18;;;;;;;;;;5081572;28;20098;-94
2023/04/12 04:36:11;;;;;;;7.38;6.78;;;;;;;;;;5085273;28;20052;-95
2023/04/12 04:38:40;;;;;;;11.50;10.50;;;;;;;;;;5081145;28;20044;-94
2023/04/12 04:41:07;;;;;;;8.65;8.02;;;;;;;;;;5079917;28;20044;-95
2023/04/12 04:43:38;;;;;;;8.18;7.75;;;;;;;;;;5076723;28;20048;-94
2023/04/12 04:46:05;;;;;;;10.68;10.07;;;;;;;;;;5077463;28;20477;-94
2023/04/12 04:48:32;;;;;;;11.32;10.43;;;;;;;;;;5077358;28;20040;-95
2023/04/12 04:51:00;;;;;;;10.90;10.23;;;;;;;;;;5077784;28;20048;-94
2023/04/12 04:53:26;;;;;;;9.63;8.88;;;;;;;;;;5080797;28;20048;-94
2023/04/12 04:55:59;;;;;;;12.75;11.90;;;;;;;;;;5081465;28;20045;-94
2023/04/12 04:58:26;;;;;;;11.32;10.43;;;;;;;;;;5078951;28;20045;-94
2023/04/12 05:00:56;;;;;;;10.25;9.20;;;;;;;;;;5080388;28;20048;-94
2023/04/12 05:03:27;;;;;;;10.52;9.32;;;;;;;;;;5085410;28;20135;-95
2023/04/12 05:05:53;;;;;;;14.23;13.43;;;;;;;;;;5080227;28;20056;-94
2023/04/12 05:08:20;;;;;;;8.60;8.02;;;;;;;;;;5080186;28;20057;-95
2023/04/12 05:10:50;;;;;;;10.68;10.07;;;;;;;;;;5084264;28;20059;-94
2023/04/12 05:13:18;;;;;;;11.13;10.50;;;;;;;;;;5085149;28;20057;-94
2023/04/12 05:15:45;;;;;;;13.18;12.57;;;;;;;;;;5084296;28;20071;-94
2023/04/12 05:18:12;;;;;;;12.52;11.77;;;;;;;;;;5083796;28;20496;-95
2023/04/12 05:20:39;;;;;;;10.18;9.48;;;;;;;;;;5086020;28;20270;-95
2023/04/12 05:23:05;;;;;;;15.00;13.85;;;;;;;;;;5084047;28;20095;-95
2023/04/12 05:25:33;;;;;;;14.50;13.50;;;;;;;;;;5089040;28;20071;-95
2023/04/12 05:27:59;;;;;;;13.80;12.88;;;;;;;;;;5077882;28;20502;-94
2023/04/12 05:30:27;;;;;;;12.30;11.77;;;;;;;;;;5081100;28;20052;-95
2023/04/12 05:32:54;;;;;;;13.65;12.88;;;;;;;;;;5089895;28;20059;-95
2023/04/12 05:35:20;;;;;;;7.78;7.10;;;;;;;;;;5082247;28;20059;-95
2023/04/12 05:37:47;;;;;;;9.15;8.68;;;;;;;;;;5088483;28;20055;-95
2023/04/12 05:40:14;;;;;;;12.30;11.55;;;;;;;;;;5089063;28;20052;-94
2023/04/12 05:42:41;;;;;;;9.10;8.50;;;;;;;;;;5084092;28;20053;-95
2023/04/12 05:45:08;;;;;;;10.75;10.00;;;;;;;;;;5087584;28;20062;-95
2023/04/12 05:47:42;;;;;;;12.88;12.15;;;;;;;;;;5091274;28;20052;-94
2023/04/12 05:50:11;;;;;;;14.55;13.35;;;;;;;;;;5094427;28;20058;-95
2023/04/12 05:52:38;;;;;;;10.10;9.30;;;;;;;;;;5091555;28;20047;-95
2023/04/12 05:55:05;;;;;;;11.95;11.15;;;;;;;;;;5095269;28;20116;-95
2023/04/12 05:57:32;;;;;;;18.60;17.58;;;;;;;;;;5092466;28;20041;-96
2023/04/12 05:59:59;;;;;;;11.77;11.05;;;;;;;;;;5093280;28;20052;-94
2023/04/12 06:02:26;;;;;;;13.77;12.95;;;;;;;;;;5087308;28;20052;-93
2023/04/12 06:04:55;;;;;;;12.20;11.15;;;;;;;;;;5091282;28;20557;-95
2023/04/12 06:07:22;;;;;;;11.70;11.18;;;;;;;;;;5090599;28;20076;-96
2023/04/12 06:09:48;;;;;;;11.02;10.50;;;;;;;;;;5088286;28;20049;-92
2023/04/12 06:12:15;;;;;;;13.57;12.70;;;;;;;;;;5087284;28;20140;-94
2023/04/12 06:14:42;;;;;;;13.48;12.82;;;;;;;;;;5082107;28;20044;-94
2023/04/12 06:17:08;;;;;;;15.57;14.80;;;;;;;;;;5083815;28;20048;-93
2023/04/12 06:19:35;;;;;;;12.10;11.57;;;;;;;;;;5084787;28;20055;-95
2023/04/12 06:22:03;;;;;;;16.02;15.23;;;;;;;;;;5081192;28;20132;-91
2023/04/12 06:24:30;;;;;;;10.95;10.50;;;;;;;;;;5083976;28;20053;-93
2023/04/12 06:26:58;;;;;;;11.98;11.48;;;;;;;;;;5083968;28;20072;-95
2023/04/12 06:29:25;;;;;;;11.48;11.02;;;;;;;;;;5083374;28;20044;-95
2023/04/12 06:31:51;;;;;;;12.20;11.63;;;;;;;;;;5083073;28;20055;-95
2023/04/12 06:34:18;;;;;;;8.40;8.07;;;;;;;;;;5084658;28;20576;-93
2023/04/12 06:36:46;;;;;;;11.18;10.65;;;;;;;;;;5078699;28;20052;-93
2023/04/12 06:39:15;;;;;;;9.43;8.93;;;;;;;;;;5078695;28;20053;-91
2023/04/12 06:41:42;;;;;;;9.75;9.35;;;;;;;;;;5082315;28;20056;-93
2023/04/12 06:44:12;;;;;;;10.90;10.40;;;;;;;;;;5084354;28;20144;-94
2023/04/12 06:46:39;;;;;;;12.50;11.90;;;;;;;;;;5085867;28;20062;-94
2023/04/12 06:49:06;;;;;;;13.05;12.45;;;;;;;;;;5086834;28;20131;-93
2023/04/12 06:51:33;;;;;;;9.45;9.05;;;;;;;;;;5084338;28;20059;-92
2023/04/12 06:54:00;;;;;;;16.95;16.15;;;;;;;;;;5083795;28;20060;-93
2023/04/12 06:56:28;;;;;;;7.85;7.53;;;;;;;;;;5082702;28;20048;-92
2023/04/12 06:58:54;;;;;;;7.05;6.75;;;;;;;;;;5086172;28;20056;-93
2023/04/12 07:01:21;;;;;;;12.80;12.27;;;;;;;;;;5085808;28;20048;-92
2023/04/12 07:03:48;;;;;;;10.05;9.63;;;;;;;;;;5084998;28;20516;-93
2023/04/12 07:06:14;;;;;;;12.18;11.65;;;;;;;;;;5085248;28;20079;-93
2023/04/12 07:08:41;;;;;;;9.13;8.63;;;;;;;;;;5085021;28;20057;-92
2023/04/12 07:11:08;;;;;;;15.30;14.70;;;;;;;;;;5086749;28;20045;-95
2023/04/12 07:13:36;;;;;;;7.38;7.07;;;;;;;;;;5086577;28;20056;-94
2023/04/12 07:16:02;;;;;;;14.23;13.63;;;;;;;;;;5084310;28;20052;-93
2023/04/12 07:18:29;;;;;;;10.13;9.52;;;;;;;;;;5083574;28;20498;-94
2023/04/12 07:20:56;;;;;;;11.23;10.77;;;;;;;;;;5082159;28;20053;-92
2023/04/12 07:23:24;;;;;;;9.20;8.85;;;;;;;;;;5085014;28;20049;-94
2023/04/12 07:25:50;;;;;;;10.15;9.75;;;;;;;;;;5081684;28;20517;-95
2023/04/12 07:28:17;;;;;;;10.88;10.40;;;;;;;;;;5081588;28;20516;-92
2023/04/12 07:30:45;;;;;;;7.93;7.55;;;;;;;;;;5080871;28;20053;-94
2023/04/12 07:33:12;;;;;;;10.32;9.93;;;;;;;;;;5081768;28;20060;-94
2023/04/12 07:35:38;;;;;;;9.48;8.77;;;;;;;;;;5081297;28;20052;-95
2023/04/12 07:38:05;;;;;;;10.70;10.27;;;;;;;;;;5079357;28;20075;-94
2023/04/12 07:40:32;;;;;;;8.52;8.20;;;;;;;;;;5086603;28;20072;-94
2023/04/12 07:42:59;;;;;;;10.77;10.32;;;;;;;;;;5080306;28;20044;-93
2023/04/12 07:45:26;;;;;;;7.82;7.43;;;;;;;;;;5084280;28;20052;-96
2023/04/12 07:47:54;;;;;;;10.18;9.75;;;;;;;;;;5080139;28;20056;-96
2023/04/12 07:50:20;;;;;;;15.55;14.95;;;;;;;;;;5081174;28;20524;-95
2023/04/12 07:52:50;;;;;;;11.38;10.95;;;;;;;;;;5079894;28;20532;-95
2023/04/12 07:55:17;;;;;;;15.43;14.73;;;;;;;;;;5082160;28;20052;-95
2023/04/12 07:57:44;;;;;;;9.23;8.82;;;;;;;;;;5082195;28;20110;-95
2023/04/12 08:00:11;;;;;;;10.30;9.90;;;;;;;;;;5081589;28;20170;-95
2023/04/12 08:02:38;;;;;;;13.32;12.80;;;;;;;;;;5082902;28;20394;-96
2023/04/12 08:05:07;;;;;;;9.20;8.80;;;;;;;;;;5087984;28;20055;-96
2023/04/12 08:07:34;;;;;;;8.18;7.85;;;;;;;;;;5081595;28;20048;-95
2023/04/12 08:10:01;;;;;;;9.27;8.65;;;;;;;;;;5079363;28;20570;-96
2023/04/12 08:12:28;;;;;;;7.10;6.78;;;;;;;;;;5086387;28;20063;-95
2023/04/12 08:14:55;;;;;;;12.57;11.98;;;;;;;;;;5087771;28;20044;-95
2023/04/12 08:17:22;;;;;;;9.98;9.55;;;;;;;;;;5088408;28;20059;-94
2023/04/12 08:19:48;;;;;;;11.35;10.85;;;;;;;;;;5078391;28;20513;-93
2023/04/12 08:22:16;;;;;;;12.95;12.35;;;;;;;;;;5076858;28;20048;-93
2023/04/12 08:24:43;;;;;;;7.88;7.55;;;;;;;;;;5077742;28;20047;-94
2023/04/12 08:27:12;;;;;;;7.55;7.25;;;;;;;;;;5082999;28;20049;-95
2023/04/12 08:29:39;;;;;;;11.60;11.13;;;;;;;;;;5080055;28;20051;-95
2023/04/12 08:32:06;;;;;;;9.45;8.93;;;;;;;;;;5076925;28;20068;-94
2023/04/12 08:34:32;;;;;;;13.88;13.32;;;;;;;;;;5081660;28;20126;-92
2023/04/12 08:36:59;;;;;;;9.65;9.25;;;;;;;;;;5082436;28;20132;-96
2023/04/12 08:39:27;;;;;;;12.13;11.68;;;;;;;;;;5084423;28;20123;-94
2023/04/12 08:41:54;;;;;;;7.82;7.50;;;;;;;;;;5084103;28;20101;-95
2023/04/12 08:44:27;;;;;;;9.05;8.52;;;;;;;;;;5083219;28;20455;-93
2023/04/12 08:46:53;;;;;;;9.60;9.15;;;;;;;;;;5081637;28;20072;-93
2023/04/12 08:49:23;;;;;;;8.43;7.93;;;;;;;;;;5081186;28;20044;-92
2023/04/12 08:51:50;;;;;;;11.82;11.32;;;;;;;;;;5081983;28;20088;-95
2023/04/12 08:54:17;;;;;;;8.68;8.27;;;;;;;;;;5084068;28;20531;-96
2023/04/12 08:56:46;;;;;;;12.05;11.55;;;;;;;;;;5091064;28;20052;-94
2023/04/12 08:59:14;;;;;;;13.57;13.05;;;;;;;;;;5081322;28;20055;-95
2023/04/12 09:01:41;;;;;;;12.82;12.32;;;;;;;;;;5080496;28;20079;-95
2023/04/12 09:04:07;;;;;;;10.35;9.95;;;;;;;;;;5079123;28;20052;-96
2023/04/12 09:06:34;;;;;;;10.90;10.45;;;;;;;;;;5080045;28;20098;-96
2023/04/12 09:09:05;;;;;;;8.05;7.72;;;;;;;;;;5083356;28;20045;-96
2023/04/12 09:11:31;;;;;;;13.82;13.30;;;;;;;;;;5083272;28;20048;-94
2023/04/12 09:14:00;;;;;;;13.10;12.57;;;;;;;;;;5079290;28;20052;-93
2023/04/12 09:16:36;;;;;;;13.35;12.85;;;;;;;;;;5077352;28;20048;-94
2023/04/12 09:19:03;;;;;;;8.70;8.35;;;;;;;;;;5080615;28;20050;-95
2023/04/12 09:21:30;;;;;;;11.40;10.93;;;;;;;;;;5081930;28;20098;-95
2023/04/12 09:24:15;;;;;;;11.05;10.63;;;;;;;;;;5085205;28;20052;-95
2023/04/12 09:26:43;;;;;;;12.82;12.30;;;;;;;;;;5084527;28;20044;-96
2023/04/12 09:29:22;;;;;;;12.45;11.93;;;;;;;;;;5080498;28;20045;-96
2023/04/12 09:31:55;;;;;;;13.45;12.93;;;;;;;;;;5084990;28;20059;-96
2023/04/12 09:34:23;;;;;;;8.88;8.52;;;;;;;;;;5089647;28;20078;-96
2023/04/12 09:36:51;;;;;;;9.40;9.00;;;;;;;;;;5088395;28;20069;-96
2023/04/12 09:39:17;;;;;;;19.83;14.23;;;;;;;;;;5086750;28;20052;-95
2023/04/12 09:41:44;;;;;;;12.82;12.30;;;;;;;;;;5083325;28;20044;-93
2023/04/12 09:44:27;;;;;;;12.40;11.90;;;;;;;;;;5080878;28;20621;-96
2023/04/12 09:46:56;;;;;;;15.77;15.13;;;;;;;;;;5081471;28;20094;-96
2023/04/12 09:49:35;;;;;;;15.48;14.88;;;;;;;;;;5083609;28;20044;-96
2023/04/12 09:52:02;;;;;;;14.95;14.25;;;;;;;;;;5084179;28;20110;-96
2023/04/12 09:54:29;;;;;;;18.30;17.63;;;;;;;;;;5079384;28;20052;-96
2023/04/12 09:56:56;;;;;;;18.70;17.98;;;;;;;;;;5078326;28;20056;-96
2023/04/12 09:59:26;;;;;;;17.08;16.45;;;;;;;;;;5080517;28;20100;-96
2023/04/12 10:01:53;;;;;;;16.92;16.17;;;;;;;;;;5080839;28;20055;-96
2023/04/12 10:04:21;;;;;;;20.55;19.75;;;;;;;;;;5077124;28;20520;-94
2023/04/12 10:06:48;;;;;;;16.80;16.08;;;;;;;;;;5078290;28;20056;-95
2023/04/12 10:09:14;;;;;;;16.88;16.20;;;;;;;;;;5075662;28;20048;-96
2023/04/12 10:11:42;;;;;;;19.40;18.67;;;;;;;;;;5077131;28;20110;-95
2023/04/12 10:14:10;;;;;;;17.75;17.02;;;;;;;;;;5076130;28;20056;-95
2023/04/12 10:16:37;;;;;;;17.23;16.60;;;;;;;;;;5080149;28;20474;-96
2023/04/12 10:19:04;;;;;;;17.38;16.75;;;;;;;;;;5081015;28;20074;-96
2023/04/12 10:21:32;;;;;;;14.30;13.77;;;;;;;;;;5084113;28;20071;-95
2023/04/12 10:23:59;;;;;;;14.77;14.18;;;;;;;;;;5082370;28;20417;-96
2023/04/12 10:26:26;;;;;;;23.20;22.30;;;;;;;;;;5083176;28;20110;-96
2023/04/12 10:29:08;;;;;;;20.45;19.70;;;;;;;;;;5081852;28;20048;-96
2023/04/12 10:31:34;;;;;;;18.95;18.25;;;;;;;;;;5080672;28;20132;-96
2023/04/12 10:34:01;;;;;;;17.83;16.30;;;;;;;;;;5081074;28;20040;-94
2023/04/12 10:36:46;;;;;;;26.23;25.25;;;;;;;;;;5080344;28;20048;-96
2023/04/12 10:39:14;;;;;;;19.48;18.73;;;;;;;;;;5080581;28;20049;-95
2023/04/12 10:42:04;;;;;;;23.40;22.55;;;;;;;;;;5081516;28;20082;-95
2023/04/12 10:44:30;;;;;;;17.88;17.23;;;;;;;;;;5080162;28;20464;-95
2023/04/12 10:46:57;;;;;;;26.35;25.40;;;;;;;;;;5078859;28;20067;-93
2023/04/12 10:49:23;;;;;;;25.00;24.10;;;;;;;;;;5080565;28;20622;-96
2023/04/12 10:52:07;;;;;;;23.92;23.05;;;;;;;;;;5079192;28;20055;-95
2023/04/12 10:54:35;;;;;;;18.83;18.10;;;;;;;;;;5069220;28;20057;-96
2023/04/12 10:57:02;;;;;;;21.15;20.40;;;;;;;;;;5080139;28;20048;-95
2023/04/12 10:59:51;;;;;;;21.17;20.40;;;;;;;;;;5080719;28;20045;-94
2023/04/12 11:02:17;;;;;;;23.58;22.75;;;;;;;;;;5080340;28;20493;-95
2023/04/12 11:04:59;;;;;;;14.63;14.10;;;;;;;;;;5081709;28;20075;-96
2023/04/12 11:07:38;;;;;;;21.45;20.70;;;;;;;;;;5080500;28;20048;-96
2023/04/12 11:10:15;;;;;;;21.30;20.50;;;;;;;;;;5081128;28;20452;-96
2023/04/12 11:12:43;;;;;;;25.25;24.23;;;;;;;;;;5080739;28;20063;-96
2023/04/12 11:15:12;;;;;;;21.35;20.55;;;;;;;;;;5081058;28;20513;-96
2023/04/12 11:17:39;;;;;;;24.35;23.45;;;;;;;;;;5079583;28;20452;-96
2023/04/12 11:20:10;;;;;;;24.60;23.73;;;;;;;;;;5082959;28;20052;-96
2023/04/12 11:22:38;;;;;;;27.88;26.85;;;;;;;;;;5082404;28;20049;-94
2023/04/12 11:25:06;;;;;;;16.63;16.00;;;;;;;;;;5079593;28;20049;-96
2023/04/12 11:27:33;;;;;;;18.02;17.35;;;;;;;;;;5081812;28;20044;-96
2023/04/12 11:30:01;;;;;;;15.13;14.55;;;;;;;;;;5083747;28;20044;-96
2023/04/12 11:32:28;;;;;;;19.75;18.95;;;;;;;;;;5084902;28;20053;-96
2023/04/12 11:34:55;;;;;;;20.55;19.83;;;;;;;;;;5078748;28;20094;-95
2023/04/12 11:37:22;;;;;;;15.20;14.60;;;;;;;;;;5078182;28;20052;-96
2023/04/12 11:39:51;;;;;;;21.35;20.55;;;;;;;;;;5077914;28;20055;-96
2023/04/12 11:42:20;;;;;;;29.55;28.52;;;;;;;;;;5077972;28;20048;-96
2023/04/12 11:44:47;;;;;;;19.98;19.05;;;;;;;;;;5078244;28;20131;-95
2023/04/12 11:47:15;;;;;;;25.05;24.13;;;;;;;;;;5076764;28;20105;-96
2023/04/12 11:49:45;;;;;;;22.58;21.70;;;;;;;;;;5078599;28;20052;-96
2023/04/12 11:52:13;;;;;;;21.52;20.75;;;;;;;;;;5079066;28;20106;-96
2023/04/12 11:54:43;;;;;;;26.75;25.80;;;;;;;;;;5081835;28;20055;-96
2023/04/12 11:57:11;;;;;;;20.45;18.75;;;;;;;;;;5076351;28;20113;-96
2023/04/12 11:59:39;;;;;;;19.90;19.08;;;;;;;;;;5077058;28;20456;-96
2023/04/12 12:02:07;;;;;;;25.67;24.75;;;;;;;;;;5077872;28;20098;-96
2023/04/12 12:04:34;;;;;;;26.83;25.88;;;;;;;;;;5079202;28;20125;-96
2023/04/12 12:07:01;;;;;;;19.33;18.60;;;;;;;;;;5077222;28;20095;-96
2023/04/12 12:09:28;;;;;;;20.92;20.17;;;;;;;;;;5077253;28;20056;-96
2023/04/12 12:11:54;;;;;;;25.00;23.90;;;;;;;;;;5077254;28;20106;-95
2023/04/12 12:14:21;;;;;;;20.83;20.00;;;;;;;;;;5076899;28;20127;-96
2023/04/12 12:16:56;;;;;;;19.40;18.67;;;;;;;;;;5078445;28;20489;-96
2023/04/12 12:19:30;;;;;;;21.70;20.90;;;;;;;;;;5078807;28;20091;-94
2023/04/12 12:22:07;;;;;;;20.63;19.90;;;;;;;;;;5088061;28;20052;-96
2023/04/12 12:24:33;;;;;;;33.15;32.00;;;;;;;;;;5084376;28;20509;-96
2023/04/12 12:27:01;;;;;;;28.10;27.10;;;;;;;;;;5080763;28;20049;-96
2023/04/12 12:29:34;;;;;;;26.08;25.15;;;;;;;;;;5082217;28;20052;-96
2023/04/12 12:32:02;;;;;;;22.90;22.05;;;;;;;;;;5077811;28;20048;-96
2023/04/12 12:34:32;;;;;;;23.02;22.20;;;;;;;;;;5076710;28;20041;-96
2023/04/12 12:36:59;;;;;;;;;;;;;;;;;;5080198;28;20048;-96
2023/04/12 12:39:25;;;;;;;20.75;19.95;;;;;;;;;;5077112;28;19924;-95
2023/04/12 12:41:53;;;;;;;21.50;20.70;;;;;;;;;;5077308;28;20044;-96
2023/04/12 12:44:22;;;;;;;24.13;23.20;;;;;;;;;;5087326;28;20059;-96
2023/04/12 12:46:48;;;;;;;23.80;22.95;;;;;;;;;;5087519;28;20051;-96
2023/04/12 12:49:23;;;;;;;36.00;34.70;;;;;;;;;;5087450;28;20568;-96
2023/04/12 12:51:51;;;;;;;23.73;22.70;;;;;;;;;;5087291;28;20044;-96
2023/04/12 12:54:18;;;;;;;18.83;18.10;;;;;;;;;;5087644;28;20056;-94
2023/04/12 12:56:45;;;;;;;19.13;18.30;;;;;;;;;;5084632;28;20050;-95
2023/04/12 12:59:11;;;;;;;36.28;26.50;;;;;;;;;;5085370;28;20079;-95
2023/04/12 13:01:39;;;;;;;19.98;19.23;;;;;;;;;;5089059;28;20052;-96
2023/04/12 13:04:06;;;;;;;23.15;22.27;;;;;;;;;;5105092;28;20060;-96
2023/04/12 13:06:34;;;;;;;18.85;18.13;;;;;;;;;;5087379;28;20136;-93
2023/04/12 13:09:01;;;;;;;23.95;23.10;;;;;;;;;;5091331;28;20470;-96
2023/04/12 13:11:30;;;;;;;17.85;17.05;;;;;;;;;;5093634;28;20366;-95
2023/04/12 13:14:01;;;;;;;24.63;23.70;;;;;;;;;;5104545;28;20048;-96
2023/04/12 13:16:28;;;;;;;22.20;21.38;;;;;;;;;;5097696;28;20051;-93
2023/04/12 13:18:55;;;;;;;22.42;21.48;;;;;;;;;;5088598;28;20040;-96
2023/04/12 13:21:22;;;;;;;22.42;21.60;;;;;;;;;;5075543;28;20054;-95
2023/04/12 13:23:50;;;;;;;15.35;14.77;;;;;;;;;;5096561;28;20052;-95
2023/04/12 13:26:18;;;;;;;24.63;23.70;;;;;;;;;;5067341;28;20048;-96
2023/04/12 13:28:47;;;;;;;18.05;17.35;;;;;;;;;;5066259;28;20087;-96
2023/04/12 13:31:13;;;;;;;17.88;17.23;;;;;;;;;;5069876;28;20048;-96
2023/04/12 13:33:40;;;;;;;15.63;15.07;;;;;;;;;;5101379;28;20074;-96
2023/04/12 13:36:07;;;;;;;18.48;17.77;;;;;;;;;;5108552;28;20047;-96
2023/04/12 13:38:35;;;;;;;21.45;20.65;;;;;;;;;;5072213;28;20079;-96
2023/04/12 13:41:05;;;;;;;15.90;15.27;;;;;;;;;;5067173;28;20052;-95
2023/04/12 13:43:32;;;;;;;17.83;17.20;;;;;;;;;;5090278;28;20050;-96
2023/04/12 13:45:59;;;;;;;13.82;13.30;;;;;;;;;;5089936;28;20082;-95
2023/04/12 13:48:44;;;;;;;17.23;16.60;;;;;;;;;;5084543;28;20080;-96
2023/04/12 13:51:11;;;;;;;18.02;17.33;;;;;;;;;;5095628;28;20064;-95
2023/04/12 13:53:38;;;;;;;19.95;19.23;;;;;;;;;;5111505;28;20044;-96
2023/04/12 13:56:09;;;;;;;18.63;17.92;;;;;;;;;;5095425;28;20055;-96
2023/04/12 13:58:39;;;;;;;20.27;19.55;;;;;;;;;;5073434;28;20047;-95
2023/04/12 14:01:08;;;;;;;18.02;17.23;;;;;;;;;;5089568;28;20067;-96
2023/04/12 14:03:35;;;;;;;18.25;17.55;;;;;;;;;;5096643;28;20044;-96
2023/04/12 14:06:08;;;;;;;22.33;21.23;;;;;;;;;;5088514;28;20056;-94
2023/04/12 14:08:40;;;;;;;21.85;20.85;;;;;;;;;;5069464;28;20071;-95
2023/04/12 14:11:08;;;;;;;23.30;22.48;;;;;;;;;;5068128;28;20073;-96
2023/04/12 14:13:37;;;;;;;20.92;20.13;;;;;;;;;;5089441;28;20044;-95
2023/04/12 14:16:09;;;;;;;21.83;21.00;;;;;;;;;;5103098;28;20090;-95
2023/04/12 14:18:36;;;;;;;23.70;22.85;;;;;;;;;;5068803;28;20076;-95
2023/04/12 14:21:03;;;;;;;19.23;18.52;;;;;;;;;;5061552;28;20056;-94
2023/04/12 14:23:29;;;;;;;18.98;18.25;;;;;;;;;;5064473;28;20052;-94
2023/04/12 14:25:59;;;;;;;32.60;31.38;;;;;;;;;;5093308;28;20052;-96
2023/04/12 14:28:34;;;;;;;14.98;14.40;;;;;;;;;;5102284;28;20497;-95
2023/04/12 14:31:01;;;;;;;19.05;18.35;;;;;;;;;;5106017;28;20108;-96
2023/04/12 14:33:28;;;;;;;26.13;25.17;;;;;;;;;;5088320;28;20052;-95
2023/04/12 14:35:56;;;;;;;18.65;17.92;;;;;;;;;;5084078;28;20053;-96